sensor_id;sensor_type;location;lat;lon;timestamp;P1;durP1;ratioP1;P2;durP2;ratioP2
74959;SDS011;63518;49.572;1.106;2023-04-25T00:01:41;4.18;;;1.33;;
74959;SDS011;63518;49.572;1.106;2023-04-25T00:04:08;6.22;;;1.23;;
74959;SDS011;63518;49.572;1.106;2023-04-25T00:06:36;4.40;;;1.23;;
74959;SDS011;63518;49.572;1.106;2023-04-25T00:09:04;4.47;;;1.38;;
74959;SDS011;63518;49.572;1.106;2023-04-25T00:11:33;4.80;;;1.33;;
74959;SDS011;63518;49.572;1.106;2023-04-25T00:14:00;4.43;;;1.40;;
74959;SDS011;63518;49.572;1.106;2023-04-25T00:16:29;3.35;;;0.90;;
74959;SDS011;63518;49.572;1.106;2023-04-25T00:19:00;5.10;;;1.42;;
74959;SDS011;63518;49.572;1.106;2023-04-25T00:21:28;5.97;;;1.33;;
74959;SDS011;63518;49.572;1.106;2023-04-25T00:23:55;3.67;;;1.17;;
74959;SDS011;63518;49.572;1.106;2023-04-25T00:26:22;4.82;;;1.30;;
74959;SDS011;63518;49.572;1.106;2023-04-25T00:28:49;5.95;;;1.45;;
74959;SDS011;63518;49.572;1.106;2023-04-25T00:31:16;5.60;;;1.63;;
74959;SDS011;63518;49.572;1.106;2023-04-25T00:33:43;5.00;;;1.90;;
74959;SDS011;63518;49.572;1.106;2023-04-25T00:36:10;5.68;;;1.65;;
74959;SDS011;63518;49.572;1.106;2023-04-25T00:38:37;4.70;;;1.50;;
74959;SDS011;63518;49.572;1.106;2023-04-25T00:41:05;4.68;;;1.40;;
74959;SDS011;63518;49.572;1.106;2023-04-25T00:43:33;4.35;;;1.33;;
74959;SDS011;63518;49.572;1.106;2023-04-25T00:46:03;3.92;;;1.48;;
74959;SDS011;63518;49.572;1.106;2023-04-25T00:48:30;4.53;;;1.55;;
74959;SDS011;63518;49.572;1.106;2023-04-25T00:50:57;5.38;;;1.50;;
74959;SDS011;63518;49.572;1.106;2023-04-25T00:53:26;4.50;;;1.52;;
74959;SDS011;63518;49.572;1.106;2023-04-25T00:55:54;6.13;;;1.90;;
74959;SDS011;63518;49.572;1.106;2023-04-25T00:58:22;5.43;;;1.63;;
74959;SDS011;63518;49.572;1.106;2023-04-25T01:00:50;5.93;;;1.90;;
74959;SDS011;63518;49.572;1.106;2023-04-25T01:03:21;7.93;;;2.15;;
74959;SDS011;63518;49.572;1.106;2023-04-25T01:05:48;6.13;;;1.85;;
74959;SDS011;63518;49.572;1.106;2023-04-25T01:08:17;5.93;;;2.30;;
74959;SDS011;63518;49.572;1.106;2023-04-25T01:10:44;6.22;;;2.13;;
74959;SDS011;63518;49.572;1.106;2023-04-25T01:13:11;6.30;;;1.90;;
74959;SDS011;63518;49.572;1.106;2023-04-25T01:15:38;4.30;;;1.33;;
74959;SDS011;63518;49.572;1.106;2023-04-25T01:18:05;4.70;;;1.70;;
74959;SDS011;63518;49.572;1.106;2023-04-25T01:20:32;8.68;;;2.38;;
74959;SDS011;63518;49.572;1.106;2023-04-25T01:23:00;4.93;;;1.52;;
74959;SDS011;63518;49.572;1.106;2023-04-25T01:25:30;5.65;;;2.20;;
74959;SDS011;63518;49.572;1.106;2023-04-25T01:27:57;4.78;;;1.67;;
74959;SDS011;63518;49.572;1.106;2023-04-25T01:30:28;8.65;;;1.83;;
74959;SDS011;63518;49.572;1.106;2023-04-25T01:32:56;4.97;;;1.67;;
74959;SDS011;63518;49.572;1.106;2023-04-25T01:35:23;6.13;;;2.20;;
74959;SDS011;63518;49.572;1.106;2023-04-25T01:37:51;8.55;;;2.33;;
74959;SDS011;63518;49.572;1.106;2023-04-25T01:40:18;6.53;;;1.90;;
74959;SDS011;63518;49.572;1.106;2023-04-25T01:42:48;6.63;;;2.22;;
74959;SDS011;63518;49.572;1.106;2023-04-25T01:45:15;5.28;;;1.73;;
74959;SDS011;63518;49.572;1.106;2023-04-25T01:47:43;6.35;;;2.28;;
74959;SDS011;63518;49.572;1.106;2023-04-25T01:50:16;5.43;;;2.10;;
74959;SDS011;63518;49.572;1.106;2023-04-25T01:52:44;5.93;;;2.10;;
74959;SDS011;63518;49.572;1.106;2023-04-25T01:55:11;11.38;;;2.47;;
74959;SDS011;63518;49.572;1.106;2023-04-25T01:57:38;7.00;;;2.28;;
74959;SDS011;63518;49.572;1.106;2023-04-25T02:00:06;7.75;;;2.00;;
74959;SDS011;63518;49.572;1.106;2023-04-25T02:02:33;5.43;;;2.03;;
74959;SDS011;63518;49.572;1.106;2023-04-25T02:05:00;6.13;;;1.60;;
74959;SDS011;63518;49.572;1.106;2023-04-25T02:07:27;6.15;;;1.98;;
74959;SDS011;63518;49.572;1.106;2023-04-25T02:09:54;5.18;;;2.38;;
74959;SDS011;63518;49.572;1.106;2023-04-25T02:12:21;8.93;;;2.45;;
74959;SDS011;63518;49.572;1.106;2023-04-25T02:14:48;7.40;;;2.00;;
74959;SDS011;63518;49.572;1.106;2023-04-25T02:17:15;6.95;;;2.30;;
74959;SDS011;63518;49.572;1.106;2023-04-25T02:19:42;7.88;;;2.97;;
74959;SDS011;63518;49.572;1.106;2023-04-25T02:22:09;8.57;;;2.63;;
74959;SDS011;63518;49.572;1.106;2023-04-25T02:24:36;6.47;;;2.25;;
74959;SDS011;63518;49.572;1.106;2023-04-25T02:27:03;7.45;;;3.05;;
74959;SDS011;63518;49.572;1.106;2023-04-25T02:29:31;8.32;;;2.72;;
74959;SDS011;63518;49.572;1.106;2023-04-25T02:31:58;10.55;;;2.72;;
74959;SDS011;63518;49.572;1.106;2023-04-25T02:34:25;4.93;;;1.88;;
74959;SDS011;63518;49.572;1.106;2023-04-25T02:36:52;7.53;;;2.72;;
74959;SDS011;63518;49.572;1.106;2023-04-25T02:39:18;9.65;;;3.22;;
74959;SDS011;63518;49.572;1.106;2023-04-25T02:41:45;9.15;;;3.45;;
74959;SDS011;63518;49.572;1.106;2023-04-25T02:44:12;9.88;;;3.28;;
74959;SDS011;63518;49.572;1.106;2023-04-25T02:46:39;11.30;;;3.92;;
74959;SDS011;63518;49.572;1.106;2023-04-25T02:49:06;8.25;;;2.58;;
74959;SDS011;63518;49.572;1.106;2023-04-25T02:51:33;8.45;;;2.97;;
74959;SDS011;63518;49.572;1.106;2023-04-25T02:54:00;8.32;;;3.55;;
74959;SDS011;63518;49.572;1.106;2023-04-25T02:56:27;9.27;;;3.67;;
74959;SDS011;63518;49.572;1.106;2023-04-25T02:58:53;11.82;;;4.65;;
74959;SDS011;63518;49.572;1.106;2023-04-25T03:01:20;10.02;;;3.80;;
74959;SDS011;63518;49.572;1.106;2023-04-25T03:03:48;13.25;;;4.00;;
74959;SDS011;63518;49.572;1.106;2023-04-25T03:06:15;10.18;;;3.25;;
74959;SDS011;63518;49.572;1.106;2023-04-25T03:08:42;7.78;;;3.22;;
74959;SDS011;63518;49.572;1.106;2023-04-25T03:11:09;9.02;;;3.03;;
74959;SDS011;63518;49.572;1.106;2023-04-25T03:13:36;14.18;;;5.50;;
74959;SDS011;63518;49.572;1.106;2023-04-25T03:16:03;11.27;;;4.43;;
74959;SDS011;63518;49.572;1.106;2023-04-25T03:18:31;9.93;;;4.28;;
74959;SDS011;63518;49.572;1.106;2023-04-25T03:20:58;13.57;;;5.35;;
74959;SDS011;63518;49.572;1.106;2023-04-25T03:23:25;12.55;;;5.18;;
74959;SDS011;63518;49.572;1.106;2023-04-25T03:25:52;6.90;;;2.55;;
74959;SDS011;63518;49.572;1.106;2023-04-25T03:28:19;9.52;;;3.30;;
74959;SDS011;63518;49.572;1.106;2023-04-25T03:30:46;10.57;;;3.65;;
74959;SDS011;63518;49.572;1.106;2023-04-25T03:33:13;11.48;;;4.85;;
74959;SDS011;63518;49.572;1.106;2023-04-25T03:35:40;11.40;;;3.92;;
74959;SDS011;63518;49.572;1.106;2023-04-25T03:38:07;11.50;;;4.30;;
74959;SDS011;63518;49.572;1.106;2023-04-25T03:40:34;10.15;;;4.18;;
74959;SDS011;63518;49.572;1.106;2023-04-25T03:43:01;10.88;;;3.85;;
74959;SDS011;63518;49.572;1.106;2023-04-25T03:45:28;12.45;;;3.97;;
74959;SDS011;63518;49.572;1.106;2023-04-25T03:47:55;10.43;;;4.13;;
74959;SDS011;63518;49.572;1.106;2023-04-25T03:50:22;9.05;;;2.92;;
74959;SDS011;63518;49.572;1.106;2023-04-25T03:52:49;10.68;;;2.50;;
74959;SDS011;63518;49.572;1.106;2023-04-25T03:55:16;6.03;;;2.22;;
74959;SDS011;63518;49.572;1.106;2023-04-25T03:57:43;7.70;;;2.40;;
74959;SDS011;63518;49.572;1.106;2023-04-25T04:00:10;11.20;;;2.65;;
74959;SDS011;63518;49.572;1.106;2023-04-25T04:02:38;9.73;;;3.10;;
74959;SDS011;63518;49.572;1.106;2023-04-25T04:05:07;8.30;;;3.10;;
74959;SDS011;63518;49.572;1.106;2023-04-25T04:07:34;8.07;;;2.53;;
74959;SDS011;63518;49.572;1.106;2023-04-25T04:10:06;7.57;;;2.38;;
74959;SDS011;63518;49.572;1.106;2023-04-25T04:12:34;8.02;;;3.00;;
74959;SDS011;63518;49.572;1.106;2023-04-25T04:15:01;8.88;;;2.60;;
74959;SDS011;63518;49.572;1.106;2023-04-25T04:17:30;9.32;;;3.20;;
74959;SDS011;63518;49.572;1.106;2023-04-25T04:19:57;6.40;;;2.67;;
74959;SDS011;63518;49.572;1.106;2023-04-25T04:22:24;11.75;;;2.63;;
74959;SDS011;63518;49.572;1.106;2023-04-25T04:24:51;10.13;;;2.65;;
74959;SDS011;63518;49.572;1.106;2023-04-25T04:27:18;10.02;;;2.83;;
74959;SDS011;63518;49.572;1.106;2023-04-25T04:29:46;9.80;;;3.22;;
74959;SDS011;63518;49.572;1.106;2023-04-25T04:32:13;7.68;;;2.40;;
74959;SDS011;63518;49.572;1.106;2023-04-25T04:34:41;10.00;;;2.40;;
74959;SDS011;63518;49.572;1.106;2023-04-25T04:37:08;9.80;;;2.92;;
74959;SDS011;63518;49.572;1.106;2023-04-25T04:39:36;9.65;;;2.83;;
74959;SDS011;63518;49.572;1.106;2023-04-25T04:42:03;10.80;;;2.20;;
74959;SDS011;63518;49.572;1.106;2023-04-25T04:44:31;9.15;;;3.10;;
74959;SDS011;63518;49.572;1.106;2023-04-25T04:47:01;7.03;;;2.35;;
74959;SDS011;63518;49.572;1.106;2023-04-25T04:49:33;6.20;;;2.22;;
74959;SDS011;63518;49.572;1.106;2023-04-25T04:52:00;9.43;;;3.08;;
74959;SDS011;63518;49.572;1.106;2023-04-25T04:54:27;5.63;;;1.90;;
74959;SDS011;63518;49.572;1.106;2023-04-25T04:56:54;7.85;;;1.80;;
74959;SDS011;63518;49.572;1.106;2023-04-25T04:59:21;6.13;;;2.03;;
74959;SDS011;63518;49.572;1.106;2023-04-25T05:01:48;7.40;;;2.42;;
74959;SDS011;63518;49.572;1.106;2023-04-25T05:04:15;6.82;;;1.85;;
74959;SDS011;63518;49.572;1.106;2023-04-25T05:06:42;7.63;;;2.20;;
74959;SDS011;63518;49.572;1.106;2023-04-25T05:09:09;7.22;;;2.25;;
74959;SDS011;63518;49.572;1.106;2023-04-25T05:11:35;9.60;;;2.40;;
74959;SDS011;63518;49.572;1.106;2023-04-25T05:14:02;9.82;;;2.53;;
74959;SDS011;63518;49.572;1.106;2023-04-25T05:16:29;8.82;;;2.47;;
74959;SDS011;63518;49.572;1.106;2023-04-25T05:18:56;7.97;;;2.40;;
74959;SDS011;63518;49.572;1.106;2023-04-25T05:21:23;7.25;;;2.33;;
74959;SDS011;63518;49.572;1.106;2023-04-25T05:23:50;8.32;;;2.25;;
74959;SDS011;63518;49.572;1.106;2023-04-25T05:26:18;9.75;;;3.05;;
74959;SDS011;63518;49.572;1.106;2023-04-25T05:28:45;9.15;;;2.67;;
74959;SDS011;63518;49.572;1.106;2023-04-25T05:31:12;6.65;;;2.00;;
74959;SDS011;63518;49.572;1.106;2023-04-25T05:33:39;9.43;;;2.85;;
74959;SDS011;63518;49.572;1.106;2023-04-25T05:36:06;9.38;;;2.53;;
74959;SDS011;63518;49.572;1.106;2023-04-25T05:38:33;8.63;;;2.60;;
74959;SDS011;63518;49.572;1.106;2023-04-25T05:41:00;8.90;;;2.20;;
74959;SDS011;63518;49.572;1.106;2023-04-25T05:43:27;9.68;;;2.15;;
74959;SDS011;63518;49.572;1.106;2023-04-25T05:45:54;7.55;;;2.10;;
74959;SDS011;63518;49.572;1.106;2023-04-25T05:48:21;9.82;;;2.50;;
74959;SDS011;63518;49.572;1.106;2023-04-25T05:50:48;7.28;;;2.10;;
74959;SDS011;63518;49.572;1.106;2023-04-25T05:53:15;10.77;;;2.20;;
74959;SDS011;63518;49.572;1.106;2023-04-25T05:55:42;8.98;;;2.72;;
74959;SDS011;63518;49.572;1.106;2023-04-25T05:58:09;7.35;;;2.00;;
74959;SDS011;63518;49.572;1.106;2023-04-25T06:00:36;5.28;;;1.70;;
74959;SDS011;63518;49.572;1.106;2023-04-25T06:03:03;11.85;;;1.83;;
74959;SDS011;63518;49.572;1.106;2023-04-25T06:05:30;11.57;;;2.13;;
74959;SDS011;63518;49.572;1.106;2023-04-25T06:07:57;7.18;;;1.92;;
74959;SDS011;63518;49.572;1.106;2023-04-25T06:10:24;9.10;;;1.85;;
74959;SDS011;63518;49.572;1.106;2023-04-25T06:12:52;10.93;;;1.90;;
74959;SDS011;63518;49.572;1.106;2023-04-25T06:15:19;5.35;;;1.77;;
74959;SDS011;63518;49.572;1.106;2023-04-25T06:17:49;6.68;;;1.60;;
74959;SDS011;63518;49.572;1.106;2023-04-25T06:20:16;9.98;;;1.92;;
74959;SDS011;63518;49.572;1.106;2023-04-25T06:22:43;7.15;;;2.05;;
74959;SDS011;63518;49.572;1.106;2023-04-25T06:25:09;9.65;;;2.05;;
74959;SDS011;63518;49.572;1.106;2023-04-25T06:27:36;10.07;;;2.10;;
74959;SDS011;63518;49.572;1.106;2023-04-25T06:30:03;8.80;;;2.50;;
74959;SDS011;63518;49.572;1.106;2023-04-25T06:32:30;9.00;;;2.03;;
74959;SDS011;63518;49.572;1.106;2023-04-25T06:34:57;5.72;;;1.75;;
74959;SDS011;63518;49.572;1.106;2023-04-25T06:37:24;7.45;;;1.98;;
74959;SDS011;63518;49.572;1.106;2023-04-25T06:39:51;8.02;;;2.17;;
74959;SDS011;63518;49.572;1.106;2023-04-25T06:42:18;7.18;;;1.58;;
74959;SDS011;63518;49.572;1.106;2023-04-25T06:44:45;9.80;;;2.40;;
74959;SDS011;63518;49.572;1.106;2023-04-25T06:47:12;13.38;;;1.90;;
74959;SDS011;63518;49.572;1.106;2023-04-25T06:49:40;6.75;;;1.48;;
74959;SDS011;63518;49.572;1.106;2023-04-25T06:52:07;9.93;;;2.05;;
74959;SDS011;63518;49.572;1.106;2023-04-25T06:54:34;7.18;;;1.92;;
74959;SDS011;63518;49.572;1.106;2023-04-25T06:57:01;8.10;;;2.30;;
74959;SDS011;63518;49.572;1.106;2023-04-25T06:59:28;10.18;;;2.42;;
74959;SDS011;63518;49.572;1.106;2023-04-25T07:01:55;11.70;;;2.00;;
74959;SDS011;63518;49.572;1.106;2023-04-25T07:04:22;9.27;;;2.22;;
74959;SDS011;63518;49.572;1.106;2023-04-25T07:06:49;5.53;;;1.30;;
74959;SDS011;63518;49.572;1.106;2023-04-25T07:09:16;9.80;;;1.77;;
74959;SDS011;63518;49.572;1.106;2023-04-25T07:11:43;8.07;;;1.90;;
74959;SDS011;63518;49.572;1.106;2023-04-25T07:14:10;15.65;;;2.75;;
74959;SDS011;63518;49.572;1.106;2023-04-25T07:16:36;7.03;;;1.83;;
74959;SDS011;63518;49.572;1.106;2023-04-25T07:19:03;8.88;;;2.28;;
74959;SDS011;63518;49.572;1.106;2023-04-25T07:21:30;11.48;;;2.17;;
74959;SDS011;63518;49.572;1.106;2023-04-25T07:23:57;7.53;;;2.15;;
74959;SDS011;63518;49.572;1.106;2023-04-25T07:26:24;8.55;;;2.42;;
74959;SDS011;63518;49.572;1.106;2023-04-25T07:28:51;10.50;;;2.00;;
74959;SDS011;63518;49.572;1.106;2023-04-25T07:31:18;12.32;;;1.92;;
74959;SDS011;63518;49.572;1.106;2023-04-25T07:33:45;13.10;;;2.70;;
74959;SDS011;63518;49.572;1.106;2023-04-25T07:36:12;7.13;;;1.42;;
74959;SDS011;63518;49.572;1.106;2023-04-25T07:38:39;3.75;;;1.48;;
74959;SDS011;63518;49.572;1.106;2023-04-25T07:41:06;8.25;;;1.58;;
74959;SDS011;63518;49.572;1.106;2023-04-25T07:43:36;6.15;;;1.40;;
74959;SDS011;63518;49.572;1.106;2023-04-25T07:46:06;10.10;;;1.77;;
74959;SDS011;63518;49.572;1.106;2023-04-25T07:48:35;9.02;;;1.90;;
74959;SDS011;63518;49.572;1.106;2023-04-25T07:51:06;12.38;;;2.83;;
74959;SDS011;63518;49.572;1.106;2023-04-25T07:53:33;4.90;;;1.73;;
74959;SDS011;63518;49.572;1.106;2023-04-25T07:56:02;14.75;;;2.20;;
74959;SDS011;63518;49.572;1.106;2023-04-25T07:58:43;7.20;;;1.92;;
74959;SDS011;63518;49.572;1.106;2023-04-25T08:01:13;6.35;;;1.90;;
74959;SDS011;63518;49.572;1.106;2023-04-25T08:03:43;5.13;;;1.38;;
74959;SDS011;63518;49.572;1.106;2023-04-25T08:06:14;8.55;;;2.05;;
74959;SDS011;63518;49.572;1.106;2023-04-25T08:08:46;6.95;;;1.27;;
74959;SDS011;63518;49.572;1.106;2023-04-25T08:11:13;12.25;;;2.00;;
74959;SDS011;63518;49.572;1.106;2023-04-25T08:13:40;7.20;;;1.52;;
74959;SDS011;63518;49.572;1.106;2023-04-25T08:16:10;7.78;;;1.25;;
74959;SDS011;63518;49.572;1.106;2023-04-25T08:18:42;10.80;;;2.13;;
74959;SDS011;63518;49.572;1.106;2023-04-25T08:21:09;7.90;;;1.52;;
74959;SDS011;63518;49.572;1.106;2023-04-25T08:23:41;7.40;;;2.30;;
74959;SDS011;63518;49.572;1.106;2023-04-25T08:26:11;7.32;;;1.60;;
74959;SDS011;63518;49.572;1.106;2023-04-25T08:28:48;7.60;;;1.75;;
74959;SDS011;63518;49.572;1.106;2023-04-25T08:31:16;5.57;;;1.40;;
74959;SDS011;63518;49.572;1.106;2023-04-25T08:33:43;5.20;;;1.63;;
74959;SDS011;63518;49.572;1.106;2023-04-25T08:36:11;8.48;;;2.58;;
74959;SDS011;63518;49.572;1.106;2023-04-25T08:38:39;6.30;;;1.35;;
74959;SDS011;63518;49.572;1.106;2023-04-25T08:41:06;8.68;;;1.70;;
74959;SDS011;63518;49.572;1.106;2023-04-25T08:43:33;9.77;;;1.50;;
74959;SDS011;63518;49.572;1.106;2023-04-25T08:46:01;7.72;;;1.48;;
74959;SDS011;63518;49.572;1.106;2023-04-25T08:48:29;9.85;;;2.45;;
74959;SDS011;63518;49.572;1.106;2023-04-25T08:51:01;7.75;;;1.50;;
74959;SDS011;63518;49.572;1.106;2023-04-25T08:53:29;5.25;;;1.50;;
74959;SDS011;63518;49.572;1.106;2023-04-25T08:58:28;7.55;;;1.73;;
74959;SDS011;63518;49.572;1.106;2023-04-25T09:00:55;6.40;;;1.30;;
74959;SDS011;63518;49.572;1.106;2023-04-25T09:03:21;9.05;;;1.63;;
74959;SDS011;63518;49.572;1.106;2023-04-25T09:05:49;9.73;;;1.58;;
74959;SDS011;63518;49.572;1.106;2023-04-25T09:08:16;10.75;;;2.00;;
74959;SDS011;63518;49.572;1.106;2023-04-25T09:10:43;5.15;;;1.35;;
74959;SDS011;63518;49.572;1.106;2023-04-25T09:13:12;10.57;;;1.55;;
74959;SDS011;63518;49.572;1.106;2023-04-25T09:15:48;6.20;;;1.55;;
74959;SDS011;63518;49.572;1.106;2023-04-25T09:18:26;4.88;;;1.83;;
74959;SDS011;63518;49.572;1.106;2023-04-25T09:20:56;8.45;;;1.75;;
74959;SDS011;63518;49.572;1.106;2023-04-25T09:23:41;8.07;;;1.48;;
74959;SDS011;63518;49.572;1.106;2023-04-25T09:26:16;8.70;;;1.90;;
74959;SDS011;63518;49.572;1.106;2023-04-25T09:28:44;5.40;;;1.33;;
74959;SDS011;63518;49.572;1.106;2023-04-25T09:31:12;8.18;;;1.67;;
74959;SDS011;63518;49.572;1.106;2023-04-25T09:33:48;4.80;;;1.35;;
74959;SDS011;63518;49.572;1.106;2023-04-25T09:36:16;8.15;;;1.50;;
74959;SDS011;63518;49.572;1.106;2023-04-25T09:38:44;7.07;;;1.58;;
74959;SDS011;63518;49.572;1.106;2023-04-25T09:41:12;6.22;;;1.45;;
74959;SDS011;63518;49.572;1.106;2023-04-25T09:43:39;9.65;;;2.22;;
74959;SDS011;63518;49.572;1.106;2023-04-25T09:46:09;9.38;;;1.70;;
74959;SDS011;63518;49.572;1.106;2023-04-25T09:48:37;8.55;;;1.58;;
74959;SDS011;63518;49.572;1.106;2023-04-25T09:51:08;5.05;;;1.40;;
74959;SDS011;63518;49.572;1.106;2023-04-25T09:53:44;8.25;;;2.00;;
74959;SDS011;63518;49.572;1.106;2023-04-25T09:56:18;8.20;;;1.55;;
74959;SDS011;63518;49.572;1.106;2023-04-25T09:58:46;9.60;;;1.60;;
74959;SDS011;63518;49.572;1.106;2023-04-25T10:01:13;9.80;;;2.10;;
74959;SDS011;63518;49.572;1.106;2023-04-25T10:03:42;7.40;;;1.38;;
74959;SDS011;63518;49.572;1.106;2023-04-25T10:06:13;8.05;;;1.65;;
74959;SDS011;63518;49.572;1.106;2023-04-25T10:08:45;6.72;;;1.40;;
74959;SDS011;63518;49.572;1.106;2023-04-25T10:11:17;5.03;;;1.30;;
74959;SDS011;63518;49.572;1.106;2023-04-25T10:13:44;8.02;;;1.65;;
74959;SDS011;63518;49.572;1.106;2023-04-25T10:16:12;4.38;;;1.23;;
74959;SDS011;63518;49.572;1.106;2023-04-25T10:18:39;5.93;;;1.48;;
74959;SDS011;63518;49.572;1.106;2023-04-25T10:21:08;7.03;;;1.02;;
74959;SDS011;63518;49.572;1.106;2023-04-25T10:23:37;5.60;;;1.40;;
74959;SDS011;63518;49.572;1.106;2023-04-25T10:26:04;6.43;;;1.42;;
74959;SDS011;63518;49.572;1.106;2023-04-25T10:28:54;6.55;;;1.48;;
74959;SDS011;63518;49.572;1.106;2023-04-25T10:31:27;6.90;;;1.45;;
74959;SDS011;63518;49.572;1.106;2023-04-25T10:33:57;6.72;;;1.30;;
74959;SDS011;63518;49.572;1.106;2023-04-25T10:36:26;5.70;;;1.38;;
74959;SDS011;63518;49.572;1.106;2023-04-25T10:38:58;6.20;;;1.30;;
74959;SDS011;63518;49.572;1.106;2023-04-25T10:41:45;6.00;;;1.40;;
74959;SDS011;63518;49.572;1.106;2023-04-25T10:44:13;4.63;;;1.00;;
74959;SDS011;63518;49.572;1.106;2023-04-25T10:46:41;6.38;;;1.50;;
74959;SDS011;63518;49.572;1.106;2023-04-25T10:49:11;7.22;;;1.30;;
74959;SDS011;63518;49.572;1.106;2023-04-25T10:57:27;5.53;;;1.23;;
74959;SDS011;63518;49.572;1.106;2023-04-25T11:00:15;8.70;;;1.38;;
74959;SDS011;63518;49.572;1.106;2023-04-25T11:02:48;6.15;;;1.45;;
74959;SDS011;63518;49.572;1.106;2023-04-25T11:08:16;6.00;;;1.48;;
74959;SDS011;63518;49.572;1.106;2023-04-25T11:10:54;6.22;;;1.33;;
74959;SDS011;63518;49.572;1.106;2023-04-25T11:13:21;7.28;;;1.48;;
74959;SDS011;63518;49.572;1.106;2023-04-25T11:15:51;5.93;;;1.40;;
74959;SDS011;63518;49.572;1.106;2023-04-25T11:18:37;6.82;;;1.63;;
74959;SDS011;63518;49.572;1.106;2023-04-25T11:21:05;6.18;;;1.58;;
74959;SDS011;63518;49.572;1.106;2023-04-25T11:23:32;7.78;;;1.63;;
74959;SDS011;63518;49.572;1.106;2023-04-25T11:25:59;9.77;;;2.13;;
74959;SDS011;63518;49.572;1.106;2023-04-25T11:28:27;7.03;;;1.60;;
74959;SDS011;63518;49.572;1.106;2023-04-25T11:30:54;6.38;;;1.80;;
74959;SDS011;63518;49.572;1.106;2023-04-25T11:33:25;6.23;;;1.50;;
74959;SDS011;63518;49.572;1.106;2023-04-25T11:35:54;8.50;;;2.25;;
74959;SDS011;63518;49.572;1.106;2023-04-25T11:38:22;6.47;;;1.98;;
74959;SDS011;63518;49.572;1.106;2023-04-25T11:40:52;5.97;;;1.70;;
74959;SDS011;63518;49.572;1.106;2023-04-25T11:43:20;8.18;;;2.03;;
74959;SDS011;63518;49.572;1.106;2023-04-25T11:45:48;7.40;;;2.00;;
74959;SDS011;63518;49.572;1.106;2023-04-25T11:48:17;5.93;;;1.77;;
74959;SDS011;63518;49.572;1.106;2023-04-25T11:50:46;7.23;;;1.83;;
74959;SDS011;63518;49.572;1.106;2023-04-25T11:53:13;6.55;;;1.60;;
74959;SDS011;63518;49.572;1.106;2023-04-25T11:55:39;5.97;;;1.50;;
74959;SDS011;63518;49.572;1.106;2023-04-25T11:58:07;8.20;;;2.10;;
74959;SDS011;63518;49.572;1.106;2023-04-25T12:00:35;6.55;;;1.42;;
74959;SDS011;63518;49.572;1.106;2023-04-25T12:03:02;7.18;;;1.77;;
74959;SDS011;63518;49.572;1.106;2023-04-25T12:05:30;7.50;;;1.60;;
74959;SDS011;63518;49.572;1.106;2023-04-25T12:08:10;8.82;;;1.80;;
74959;SDS011;63518;49.572;1.106;2023-04-25T12:10:41;7.75;;;1.98;;
74959;SDS011;63518;49.572;1.106;2023-04-25T12:13:19;7.55;;;1.90;;
74959;SDS011;63518;49.572;1.106;2023-04-25T12:15:47;8.20;;;1.75;;
74959;SDS011;63518;49.572;1.106;2023-04-25T12:18:14;7.47;;;1.77;;
74959;SDS011;63518;49.572;1.106;2023-04-25T12:20:41;8.50;;;1.90;;
74959;SDS011;63518;49.572;1.106;2023-04-25T12:23:08;6.57;;;1.70;;
74959;SDS011;63518;49.572;1.106;2023-04-25T12:25:44;6.60;;;1.73;;
74959;SDS011;63518;49.572;1.106;2023-04-25T12:33:42;8.48;;;1.80;;
74959;SDS011;63518;49.572;1.106;2023-04-25T12:36:10;8.20;;;2.60;;
74959;SDS011;63518;49.572;1.106;2023-04-25T12:38:38;8.55;;;2.13;;
74959;SDS011;63518;49.572;1.106;2023-04-25T12:41:07;5.90;;;1.73;;
74959;SDS011;63518;49.572;1.106;2023-04-25T12:43:34;7.80;;;1.95;;
74959;SDS011;63518;49.572;1.106;2023-04-25T12:46:01;9.15;;;1.90;;
74959;SDS011;63518;49.572;1.106;2023-04-25T12:48:31;8.05;;;1.80;;
74959;SDS011;63518;49.572;1.106;2023-04-25T12:51:02;6.13;;;1.80;;
74959;SDS011;63518;49.572;1.106;2023-04-25T12:53:29;6.27;;;1.80;;
74959;SDS011;63518;49.572;1.106;2023-04-25T12:56:04;8.05;;;1.85;;
74959;SDS011;63518;49.572;1.106;2023-04-25T12:58:32;8.45;;;2.08;;
74959;SDS011;63518;49.572;1.106;2023-04-25T13:00:59;6.70;;;2.00;;
74959;SDS011;63518;49.572;1.106;2023-04-25T13:03:26;7.25;;;1.85;;
74959;SDS011;63518;49.572;1.106;2023-04-25T13:05:53;5.80;;;1.70;;
74959;SDS011;63518;49.572;1.106;2023-04-25T13:08:28;8.00;;;1.95;;
74959;SDS011;63518;49.572;1.106;2023-04-25T13:10:56;7.40;;;1.90;;
74959;SDS011;63518;49.572;1.106;2023-04-25T13:13:23;7.18;;;1.70;;
74959;SDS011;63518;49.572;1.106;2023-04-25T13:15:50;7.40;;;1.63;;
74959;SDS011;63518;49.572;1.106;2023-04-25T13:18:17;6.70;;;1.80;;
74959;SDS011;63518;49.572;1.106;2023-04-25T13:20:53;7.60;;;1.90;;
74959;SDS011;63518;49.572;1.106;2023-04-25T13:23:21;7.00;;;1.77;;
74959;SDS011;63518;49.572;1.106;2023-04-25T13:25:48;8.05;;;1.85;;
74959;SDS011;63518;49.572;1.106;2023-04-25T13:28:15;7.18;;;1.77;;
74959;SDS011;63518;49.572;1.106;2023-04-25T13:30:42;5.75;;;1.58;;
74959;SDS011;63518;49.572;1.106;2023-04-25T13:33:09;7.13;;;1.88;;
74959;SDS011;63518;49.572;1.106;2023-04-25T13:35:37;7.60;;;1.75;;
74959;SDS011;63518;49.572;1.106;2023-04-25T13:38:04;6.75;;;1.90;;
74959;SDS011;63518;49.572;1.106;2023-04-25T13:40:31;7.53;;;2.00;;
74959;SDS011;63518;49.572;1.106;2023-04-25T13:43:01;7.28;;;2.35;;
74959;SDS011;63518;49.572;1.106;2023-04-25T13:45:28;9.37;;;1.87;;
74959;SDS011;63518;49.572;1.106;2023-04-25T13:47:58;5.93;;;1.70;;
74959;SDS011;63518;49.572;1.106;2023-04-25T13:50:25;8.27;;;2.00;;
74959;SDS011;63518;49.572;1.106;2023-04-25T13:52:52;8.73;;;2.20;;
74959;SDS011;63518;49.572;1.106;2023-04-25T13:55:19;8.65;;;2.10;;
74959;SDS011;63518;49.572;1.106;2023-04-25T13:57:46;6.57;;;1.40;;
74959;SDS011;63518;49.572;1.106;2023-04-25T14:00:13;6.00;;;1.70;;
74959;SDS011;63518;49.572;1.106;2023-04-25T14:02:40;7.63;;;1.90;;
74959;SDS011;63518;49.572;1.106;2023-04-25T14:05:07;7.43;;;2.40;;
74959;SDS011;63518;49.572;1.106;2023-04-25T14:07:34;7.10;;;1.70;;
74959;SDS011;63518;49.572;1.106;2023-04-25T14:10:02;7.30;;;1.90;;
74959;SDS011;63518;49.572;1.106;2023-04-25T14:12:31;7.20;;;2.00;;
74959;SDS011;63518;49.572;1.106;2023-04-25T14:14:58;8.27;;;2.30;;
74959;SDS011;63518;49.572;1.106;2023-04-25T14:17:25;7.95;;;2.13;;
74959;SDS011;63518;49.572;1.106;2023-04-25T14:19:53;8.30;;;2.03;;
74959;SDS011;63518;49.572;1.106;2023-04-25T14:22:20;7.38;;;1.80;;
74959;SDS011;63518;49.572;1.106;2023-04-25T14:24:46;6.93;;;1.90;;
74959;SDS011;63518;49.572;1.106;2023-04-25T14:27:15;6.82;;;1.80;;
74959;SDS011;63518;49.572;1.106;2023-04-25T14:29:41;6.68;;;1.80;;
74959;SDS011;63518;49.572;1.106;2023-04-25T14:32:09;7.47;;;2.25;;
74959;SDS011;63518;49.572;1.106;2023-04-25T14:34:36;6.60;;;2.03;;
74959;SDS011;63518;49.572;1.106;2023-04-25T14:37:03;7.22;;;2.13;;
74959;SDS011;63518;49.572;1.106;2023-04-25T14:39:30;7.47;;;1.88;;
74959;SDS011;63518;49.572;1.106;2023-04-25T14:41:57;7.95;;;1.73;;
74959;SDS011;63518;49.572;1.106;2023-04-25T14:44:24;6.33;;;1.70;;
74959;SDS011;63518;49.572;1.106;2023-04-25T14:46:51;8.13;;;1.73;;
74959;SDS011;63518;49.572;1.106;2023-04-25T14:49:18;10.02;;;2.10;;
74959;SDS011;63518;49.572;1.106;2023-04-25T14:51:45;8.57;;;1.90;;
74959;SDS011;63518;49.572;1.106;2023-04-25T14:54:12;6.75;;;1.83;;
74959;SDS011;63518;49.572;1.106;2023-04-25T14:56:39;7.72;;;1.80;;
74959;SDS011;63518;49.572;1.106;2023-04-25T14:59:06;7.32;;;2.22;;
74959;SDS011;63518;49.572;1.106;2023-04-25T15:01:33;7.78;;;2.17;;
74959;SDS011;63518;49.572;1.106;2023-04-25T15:03:59;9.23;;;2.20;;
74959;SDS011;63518;49.572;1.106;2023-04-25T15:06:27;8.43;;;2.58;;
74959;SDS011;63518;49.572;1.106;2023-04-25T15:08:56;8.75;;;1.85;;